Cross Plains, Texas
Current Conditions -  °F | °C
As of 2:55 AM on Wednesday 28 Jan 2015 (Local Time) from KCOM Reporting Station
Clear Clear  
Wind Chill: 50°   Ceiling: Unl
Heat Index: 50°   Visibility: 10mi
Dew Point: 38°   Wind: 3mph
Humidity: 63%   Direction: 220°SW
Pressure: 30.11"   Gusts: NA
Location:  32.13°N, 99.17°W
Report Text: KCOM 280855Z AUTO 22003KT 10SM CLR 10/04 A3011 RMK AO2 T01020035
Loading
Personal Weather Stations






























Interactive Weather Map New forecast layout! Learn more

10-Day Weather Forecast

Advertisements
Track Severe Weather on mobile